Time,TemperatureC,DewpointC,PressurehPa,WindDirection,WindDirectionDegrees,WindSpeedKMH,WindSpeedGustKMH,Humidity,HourlyPrecipMM,Conditions,Clouds,dailyrainMM,SolarRadiationWatts/m^2,UVIndex,SoftwareType,DateUTC
2020-11-26 00:00:00,-4,-4.9,1000.1,North,9,11.3,16.1,93,0.0,,,0.0,,,n/a,2020-11-25T23:00:00Z
2020-11-26 00:10:00,-4,-4.9,1000.1,NNE,26,11.3,19.3,93,0.0,,,0.0,,,n/a,2020-11-25T23:10:00Z
2020-11-26 00:20:00,-4.1,-5.2,1000.0,NNE,24,12.9,16.1,92,0.0,,,0.0,,,n/a,2020-11-25T23:20:00Z
2020-11-26 00:30:00,-4.2,-5.1,1000.1,NNE,18,11.3,16.1,93,0.0,,,0.0,,,n/a,2020-11-25T23:30:00Z
2020-11-26 00:40:00,-4.3,-5.4,1000.0,NNE,19,12.9,19.3,92,0.0,,,0.0,,,n/a,2020-11-25T23:40:00Z
2020-11-26 00:50:00,-4.5,-5.6,1000.3,NNE,27,9.7,16.1,92,0.0,,,0.0,,,n/a,2020-11-25T23:50:00Z
2020-11-26 01:00:00,-4.6,-5.5,1000.2,NNE,14,9.7,14.5,93,0.0,,,0.0,,,n/a,2020-11-26T00:00:00Z
2020-11-26 01:10:00,-4.6,-5.5,1000.3,NNE,19,11.3,14.5,93,0.0,,,0.0,,,n/a,2020-11-26T00:10:00Z
2020-11-26 01:20:00,-4.5,-5.5,1000.4,NNE,28,11.3,14.5,93,0.0,,,0.0,,,n/a,2020-11-26T00:20:00Z
2020-11-26 01:30:00,-4.4,-5.6,1000.6,NNE,25,9.7,16.1,92,0.0,,,0.0,,,n/a,2020-11-26T00:30:00Z
2020-11-26 01:40:00,-4.5,-5.6,1000.4,NE,37,8,11.3,92,0.0,,,0.0,,,n/a,2020-11-26T00:40:00Z
2020-11-26 01:50:00,-4.5,-5.6,1000.3,NNE,24,8,12.9,92,0.0,,,0.0,,,n/a,2020-11-26T00:50:00Z
2020-11-26 02:00:00,-4.5,-5.6,1000.5,NNE,28,8,14.5,92,0.0,,,0.0,,,n/a,2020-11-26T01:00:00Z
2020-11-26 02:10:00,-4.6,-5.8,1000.6,NNE,19,8,12.9,91,0.0,,,0.0,,,n/a,2020-11-26T01:10:00Z
2020-11-26 02:20:00,-4.6,-5.8,1000.6,NNE,26,9.7,11.3,91,0.0,,,0.0,,,n/a,2020-11-26T01:20:00Z
2020-11-26 02:30:00,-4.6,-5.7,1000.7,NNE,25,8,14.5,92,0.0,,,0.0,,,n/a,2020-11-26T01:30:00Z
2020-11-26 02:40:00,-4.7,-5.7,1000.6,NNE,29,8,11.3,92,0.0,,,0.0,,,n/a,2020-11-26T01:40:00Z
2020-11-26 02:50:00,-4.7,-5.8,1000.8,NNE,28,3.2,9.7,92,0.0,,,0.0,,,n/a,2020-11-26T01:50:00Z
2020-11-26 03:00:00,-4.9,-6.1,1000.8,NNE,30,3.2,6.4,92,0.0,,,0.0,,,n/a,2020-11-26T02:00:00Z
2020-11-26 03:10:00,-5.3,-6.4,1001.0,East,81,1.6,6.4,92,0.0,,,0.0,,,n/a,2020-11-26T02:10:00Z
2020-11-26 03:20:00,-5.5,-6.4,1001.1,East,81,1.6,4.8,93,0.0,,,0.0,,,n/a,2020-11-26T02:20:00Z
2020-11-26 03:30:00,-5.7,-6.8,1001.4,NNE,25,3.2,6.4,92,0.0,,,0.0,,,n/a,2020-11-26T02:30:00Z
2020-11-26 03:40:00,-5.8,-6.7,1001.3,NNE,22,3.2,4.8,93,0.0,,,0.0,,,n/a,2020-11-26T02:40:00Z
2020-11-26 03:50:00,-5.9,-6.9,1001.3,NNE,26,3.2,6.4,93,0.0,,,0.0,,,n/a,2020-11-26T02:50:00Z
2020-11-26 04:00:00,-6.1,-6.9,1001.6,NNE,26,3.2,6.4,94,0.0,,,0.0,,,n/a,2020-11-26T03:00:00Z
2020-11-26 04:10:00,-6.1,-6.8,1001.7,NNE,22,3.2,6.4,94,0.0,,,0.0,,,n/a,2020-11-26T03:10:00Z
2020-11-26 04:20:00,-6.1,-6.9,1001.8,NNE,22,3.2,4.8,94,0.0,,,0.0,,,n/a,2020-11-26T03:20:00Z
2020-11-26 04:30:00,-6.6,-7.5,1001.9,NNE,14,4.8,6.4,93,0.0,,,0.0,,,n/a,2020-11-26T03:30:00Z
2020-11-26 04:40:00,-6.9,-7.8,1001.9,North,352,0,6.4,93,0.0,,,0.0,,,n/a,2020-11-26T03:40:00Z
2020-11-26 04:50:00,-7,-7.9,1002.0,NNW,328,3.2,6.4,93,0.0,,,0.0,,,n/a,2020-11-26T03:50:00Z
2020-11-26 05:00:00,-6.9,-7.9,1001.9,NW,314,3.2,4.8,93,0.0,,,0.0,,,n/a,2020-11-26T04:00:00Z
2020-11-26 05:10:00,-6.9,-7.8,1002.1,NW,306,3.2,6.4,93,0.0,,,0.0,,,n/a,2020-11-26T04:10:00Z
2020-11-26 05:20:00,-6.6,-7.6,1002.1,WNW,292,4.8,8,93,0.0,,,0.0,,,n/a,2020-11-26T04:20:00Z
2020-11-26 05:30:00,-6.3,-7.2,1002.3,WNW,289,8,9.7,93,0.0,,,0.0,,,n/a,2020-11-26T04:30:00Z
2020-11-26 05:40:00,-5.8,-6.7,1002.5,WNW,291,3.2,8,93,0.0,,,0.0,,,n/a,2020-11-26T04:40:00Z
2020-11-26 05:50:00,-5.5,-6.6,1002.6,West,263,3.2,8,92,0.0,,,0.0,,,n/a,2020-11-26T04:50:00Z
2020-11-26 06:00:00,-5.6,-6.8,1002.8,WSW,253,4.8,8,91,0.0,,,0.0,,,n/a,2020-11-26T05:00:00Z
2020-11-26 06:10:00,-5.7,-6.9,1003.0,West,277,3.2,8,91,0.0,,,0.0,,,n/a,2020-11-26T05:10:00Z
2020-11-26 06:20:00,-5.6,-6.8,1003.1,West,273,3.2,8,91,0.0,,,0.0,,,n/a,2020-11-26T05:20:00Z
2020-11-26 06:30:00,-5.6,-6.9,1003.2,West,261,4.8,8,90,0.0,,,0.0,,,n/a,2020-11-26T05:30:00Z
2020-11-26 06:40:00,-5.6,-7,1003.6,West,259,1.6,8,90,0.0,,,0.0,,,n/a,2020-11-26T05:40:00Z
2020-11-26 06:50:00,-5.7,-6.9,1003.6,West,279,3.2,6.4,91,0.0,,,0.0,,,n/a,2020-11-26T05:50:00Z
2020-11-26 07:00:00,-5.4,-6.7,1003.8,West,272,4.8,8,91,0.0,,,0.0,,,n/a,2020-11-26T06:00:00Z
2020-11-26 07:10:00,-5.3,-6.5,1003.9,WSW,257,3.2,9.7,91,0.0,,,0.0,,,n/a,2020-11-26T06:10:00Z